Aérodrome :
LOGIN :

S'inscrire | Disclaimer

   EN    FR    IT 

 










Légende :    VFR   VFR Marginal   IFR   IFR Intensif   IFR Très Intensif
Visi : 
Plafond : 
>= 8 km
>= 3000ft
5 à 8 km
1000 à 3000 ft
1500m à 5 km
500 à 1000 ft
800 à 1500m
200 à 500 ft
< 800m
< 200 ft
Symboles :   Orages  Brouillard  Fortes neiges  Fortes précipitations  Vent > 20 kt
SIGMETs :   Divers  Orages  Givrage  Turbulence  Onde Orograph.  Cendres Volcan.







- Altitude de l'aérodrome : 16 ft
- Code IATA : SDR


LEXJ - Santander Cantabria

DERNIER METAR :
  • 220900Z 06004KT 320V110 9999 FEW040 26/19 Q1020

METARs EXPIRÉS :
  • 220830Z 08005KT 030V130 9999 FEW020 25/18 Q1020
  • 220800Z 09006KT 070V140 9999 FEW032 24/18 Q1021
  • 220730Z 08006KT 010V120 9999 FEW032 24/19 Q1021
  • 220700Z 09005KT 050V140 9999 SCT032 23/19 Q1021
  • 220630Z 11003KT 070V180 9999 SCT032 22/19 Q1021

TAF TAF LEXJ
Valide du 22 à 09h jusqu'au 23 à 09h UTC


220800Z 2209/2309 VRB05KT 9999 FEW030 TX31/2309Z TN20/2305Z
TEMPO 2210/2216 05010KT
PROB30
TEMPO 2214/2222 TSRA SCT030CB
Pas de NOTAMs connus pour ce terrain.



MET'MAP, la Météo Aéronautique d'un coup d'oeil ! - Copyright ORBIFLY Décembre 2007 - Disclaimer

ORBIFLY MET'MAP TEAM :

Programmation & Développement : Alexandra Zaïnal
Conception & Développement : Baudouin d'Aumeries
Co-Programmation & Développement : Marc-Olivier Méhu
Soutien technique & logistique : Manuel Goepfert

Contact : metmap@orbifly.com




SOURCES & CREDITS :

   NOAA